Time;durP1;ratioP1;P1;durP2;ratioP2;P2;SDS_P1;SDS_P2;PMS_P1;PMS_P2;Temp;Humidity;BMP_temperature;BMP_pressure;BME280_temperature;BME280_humidity;BME280_pressure;Samples;Min_cycle;Max_cycle;Signal;HPM_P1;HPM_P2
2023/06/11 00:01:16;;;;;;;6.32;5.35;;;;;;;20.12;78.09;94475.69;4951811;28;20649;-58
2023/06/11 00:03:42;;;;;;;5.85;5.35;;;;;;;19.99;78.96;94478.44;4952585;28;20299;-59
2023/06/11 00:06:10;;;;;;;16.55;12.27;;;;;;;19.77;79.80;94480.28;4950109;28;20360;-59
2023/06/11 00:08:37;;;;;;;13.00;11.73;;;;;;;19.74;80.00;94480.50;4951127;28;20217;-59
2023/06/11 00:11:04;;;;;;;8.73;7.97;;;;;;;19.78;79.86;94477.56;4949401;28;20340;-58
2023/06/11 00:13:30;;;;;;;8.48;6.65;;;;;;;19.72;80.33;94477.22;4951018;28;20263;-57
2023/06/11 00:15:57;;;;;;;6.88;6.38;;;;;;;19.64;80.86;94483.78;4950014;28;20772;-60
2023/06/11 00:18:25;;;;;;;6.68;6.13;;;;;;;19.55;81.06;94476.75;4951816;28;20870;-57
2023/06/11 00:20:52;;;;;;;7.00;6.40;;;;;;;19.48;81.38;94480.75;4951293;28;20291;-58
2023/06/11 00:23:18;;;;;;;5.60;5.25;;;;;;;19.27;82.06;94469.53;4952088;28;20243;-61
2023/06/11 00:25:45;;;;;;;7.28;5.45;;;;;;;19.31;82.35;94484.59;4954246;28;22002;-58
2023/06/11 00:28:12;;;;;;;5.60;5.10;;;;;;;19.34;82.26;94478.41;4951616;28;20233;-57
2023/06/11 00:30:38;;;;;;;6.20;5.30;;;;;;;19.30;82.38;94492.47;4951756;28;20356;-59
2023/06/11 00:33:05;;;;;;;102.63;59.92;;;;;;;19.23;82.57;94486.16;4953600;28;20209;-59
2023/06/11 00:35:33;;;;;;;35.47;23.17;;;;;;;19.24;82.85;94493.75;4953211;28;20208;-58
2023/06/11 00:38:00;;;;;;;10.02;9.23;;;;;;;19.24;82.62;94488.63;4953327;28;20278;-57
2023/06/11 00:40:27;;;;;;;10.10;6.82;;;;;;;19.25;82.85;94489.44;4951678;28;20324;-58
2023/06/11 00:42:54;;;;;;;18.20;14.73;;;;;;;19.20;83.02;94481.22;4953596;28;20212;-58
2023/06/11 00:45:22;;;;;;;34.00;22.75;;;;;;;19.28;82.52;94478.91;4950533;28;20209;-60
2023/06/11 00:47:49;;;;;;;16.83;14.20;;;;;;;19.23;82.84;94481.81;4952295;28;20240;-58
2023/06/11 00:50:16;;;;;;;9.45;6.85;;;;;;;19.19;83.08;94484.75;4950559;28;20197;-59
2023/06/11 00:52:44;;;;;;;6.68;6.18;;;;;;;19.21;83.38;94482.88;4951529;28;20343;-59
2023/06/11 00:55:11;;;;;;;9.35;5.93;;;;;;;19.24;83.05;94488.63;4950438;28;20205;-58
2023/06/11 00:57:40;;;;;;;5.70;5.25;;;;;;;19.23;83.00;94475.84;4950281;28;20292;-59
2023/06/11 01:00:12;;;;;;;6.15;5.65;;;;;;;19.15;83.37;94473.03;4950509;28;20212;-57
2023/06/11 01:02:44;;;;;;;6.82;5.78;;;;;;;19.17;83.12;94481.47;4949227;28;20215;-57
2023/06/11 01:05:17;;;;;;;6.45;5.85;;;;;;;19.05;83.70;94483.22;4948099;28;20796;-58
2023/06/11 01:07:50;;;;;;;5.85;5.45;;;;;;;18.96;83.86;94484.75;4949865;28;20327;-59
2023/06/11 01:10:17;;;;;;;5.85;5.45;;;;;;;19.00;84.01;94480.19;4951442;28;20208;-58
2023/06/11 01:12:44;;;;;;;6.47;5.82;;;;;;;18.95;84.16;94477.94;4948867;28;20697;-58
2023/06/11 01:15:13;;;;;;;6.13;5.75;;;;;;;18.92;84.26;94475.59;4949832;28;20287;-58
2023/06/11 01:17:46;;;;;;;7.00;6.15;;;;;;;18.84;84.86;94483.06;4949924;28;20259;-61
2023/06/11 01:20:18;;;;;;;7.10;5.35;;;;;;;18.73;85.47;94487.41;4948849;28;20713;-58
2023/06/11 01:23:15;;;;;;;7.53;6.38;;;;;;;18.67;85.34;94478.38;4949053;28;20304;-58
2023/06/11 01:25:52;;;;;;;6.63;6.05;;;;;;;18.68;85.26;94470.53;4941509;28;20209;-58
2023/06/11 01:28:26;;;;;;;7.05;5.95;;;;;;;18.74;85.12;94477.00;4950470;28;20232;-58
2023/06/11 01:30:55;;;;;;;6.22;5.65;;;;;;;18.72;84.92;94475.47;4948967;28;20247;-59
2023/06/11 01:33:24;;;;;;;6.35;5.95;;;;;;;18.68;84.98;94469.72;4949033;28;20702;-57
2023/06/11 01:35:57;;;;;;;5.88;5.38;;;;;;;18.72;84.79;94475.47;4950640;28;20251;-58
2023/06/11 01:38:25;;;;;;;6.32;5.50;;;;;;;18.73;84.42;94475.34;4949202;28;20205;-59
2023/06/11 01:40:55;;;;;;;6.85;5.97;;;;;;;18.72;84.30;94476.28;4948377;28;20236;-58
2023/06/11 01:43:24;;;;;;;5.40;5.10;;;;;;;18.83;84.22;94481.44;4948578;28;20207;-59
2023/06/11 01:45:51;;;;;;;5.70;5.30;;;;;;;18.83;84.22;94473.69;4949944;28;20584;-58
2023/06/11 01:48:17;;;;;;;6.47;5.78;;;;;;;18.84;84.56;94480.50;4950775;28;20243;-58
2023/06/11 01:50:44;;;;;;;7.00;4.97;;;;;;;18.92;84.29;94480.75;4948592;28;20229;-58
2023/06/11 01:53:12;;;;;;;6.63;5.07;;;;;;;19.01;84.01;94477.50;4950400;28;20304;-58
2023/06/11 01:55:39;;;;;;;6.30;5.80;;;;;;;19.02;83.69;94483.47;4948519;28;20204;-57
2023/06/11 01:58:06;;;;;;;5.63;5.22;;;;;;;19.09;83.44;94486.38;4949758;28;20834;-59
2023/06/11 02:00:34;;;;;;;5.70;5.22;;;;;;;19.16;82.84;94490.13;4949364;28;20344;-58
2023/06/11 02:03:02;;;;;;;5.43;5.13;;;;;;;19.38;81.50;94484.97;4948122;28;20236;-58
2023/06/11 02:05:29;;;;;;;8.63;5.45;;;;;;;19.45;81.26;94482.75;4949118;28;20212;-58
2023/06/11 02:07:56;;;;;;;7.43;5.38;;;;;;;19.28;81.77;94484.88;4949071;28;20708;-58
2023/06/11 02:10:22;;;;;;;6.57;6.18;;;;;;;19.22;82.73;94489.66;4950303;28;20209;-58
2023/06/11 02:12:50;;;;;;;12.10;6.45;;;;;;;19.22;82.49;94495.63;4947970;28;20265;-58
2023/06/11 02:15:16;;;;;;;6.57;6.00;;;;;;;19.21;82.68;94496.56;4948964;28;20213;-58
2023/06/11 02:17:44;;;;;;;6.03;5.63;;;;;;;19.20;82.69;94491.53;4948622;28;20731;-63
2023/06/11 02:20:13;;;;;;;5.45;5.07;;;;;;;19.17;82.65;94491.75;4949856;28;20216;-58
2023/06/11 02:22:40;;;;;;;6.75;5.80;;;;;;;19.18;82.54;94493.41;4948018;28;20299;-58
2023/06/11 02:25:07;;;;;;;6.85;5.10;;;;;;;19.19;82.18;94495.03;4948881;28;20209;-58
2023/06/11 02:27:34;;;;;;;5.72;5.05;;;;;;;19.21;82.04;94488.84;4949079;28;20256;-57
2023/06/11 02:30:01;;;;;;;5.57;5.18;;;;;;;19.30;81.28;94488.13;4948500;28;20237;-58
2023/06/11 02:32:28;;;;;;;5.45;5.05;;;;;;;19.30;81.49;94487.34;4946509;28;20783;-58
2023/06/11 02:34:56;;;;;;;5.47;4.65;;;;;;;19.29;81.12;94483.13;4948735;28;20267;-59
2023/06/11 02:37:22;;;;;;;6.40;5.20;;;;;;;19.26;81.40;94480.78;4948003;28;20260;-57
2023/06/11 02:39:49;;;;;;;5.53;5.22;;;;;;;19.22;81.51;94485.34;4948001;28;21180;-57
2023/06/11 02:42:16;;;;;;;8.52;5.22;;;;;;;19.21;81.34;94488.03;4948606;28;20217;-58
2023/06/11 02:44:43;;;;;;;11.02;5.00;;;;;;;19.22;81.40;94480.19;4948272;28;20662;-58
2023/06/11 02:47:09;;;;;;;5.75;5.35;;;;;;;19.24;81.43;94480.06;4948939;28;20295;-58
2023/06/11 02:49:36;;;;;;;9.25;5.25;;;;;;;19.28;81.14;94478.91;4950040;28;20209;-58
2023/06/11 02:52:05;;;;;;;4.80;4.32;;;;;;;19.31;81.00;94483.78;4947003;28;20282;-59
2023/06/11 02:54:32;;;;;;;5.80;4.93;;;;;;;19.31;80.80;94479.47;4946664;28;20205;-58
2023/06/11 02:56:58;;;;;;;8.20;5.10;;;;;;;19.39;80.60;94486.59;4949117;28;22043;-59
2023/06/11 02:59:25;;;;;;;5.15;4.85;;;;;;;19.54;79.68;94482.06;4947477;28;20209;-59
2023/06/11 03:01:52;;;;;;;5.40;5.05;;;;;;;19.59;79.42;94487.66;4949436;28;20379;-59
2023/06/11 03:04:18;;;;;;;5.63;5.22;;;;;;;19.46;79.95;94487.78;4948236;28;20742;-60
2023/06/11 03:06:45;;;;;;;5.55;5.20;;;;;;;19.30;80.75;94492.47;4945305;28;20362;-60
2023/06/11 03:09:13;;;;;;;7.75;6.10;;;;;;;19.25;81.29;94494.59;4948444;28;20367;-58
2023/06/11 03:11:40;;;;;;;6.43;5.20;;;;;;;19.22;81.54;94490.50;4950141;28;20201;-58
2023/06/11 03:14:07;;;;;;;5.13;4.72;;;;;;;19.19;81.68;94490.72;4947613;28;20312;-58
2023/06/11 03:16:34;;;;;;;8.60;5.13;;;;;;;19.19;81.68;94489.91;4946820;28;20215;-59
2023/06/11 03:19:00;;;;;;;7.80;5.65;;;;;;;19.27;81.25;94487.56;4947652;28;20331;-58
2023/06/11 03:21:27;;;;;;;7.82;5.00;;;;;;;19.30;81.27;94493.28;4949649;28;20212;-59
2023/06/11 03:23:54;;;;;;;5.32;5.00;;;;;;;19.37;81.08;94493.63;4948120;28;20731;-58
2023/06/11 03:26:24;;;;;;;8.32;5.53;;;;;;;19.38;81.16;94503.81;4946168;28;20208;-58
2023/06/11 03:28:51;;;;;;;7.03;5.15;;;;;;;19.43;80.89;94506.06;4947080;28;20730;-58
2023/06/11 03:31:17;;;;;;;5.88;5.38;;;;;;;19.45;80.57;94506.75;4949530;28;20299;-59
2023/06/11 03:33:44;;;;;;;6.10;5.57;;;;;;;19.43;80.35;94511.19;4949488;28;20212;-58
2023/06/11 03:36:11;;;;;;;5.53;5.13;;;;;;;19.49;80.04;94523.63;4950381;28;20287;-58
2023/06/11 03:38:38;;;;;;;11.75;5.85;;;;;;;19.48;79.92;94521.97;4948176;28;20280;-59
2023/06/11 03:41:05;;;;;;;5.43;5.10;;;;;;;19.55;79.82;94525.72;4948083;28;20823;-57
2023/06/11 03:43:35;;;;;;;5.88;5.32;;;;;;;19.59;79.69;94519.41;4948248;28;20213;-58
2023/06/11 03:46:02;;;;;;;5.70;5.15;;;;;;;19.59;79.37;94527.16;4949135;28;20561;-57
2023/06/11 03:48:28;;;;;;;8.38;5.65;;;;;;;19.62;79.31;94524.34;4947883;28;20237;-57
2023/06/11 03:50:55;;;;;;;9.57;5.00;;;;;;;19.77;78.47;94521.53;4948312;28;20236;-58
2023/06/11 03:53:22;;;;;;;5.65;5.13;;;;;;;19.75;78.49;94519.06;4950957;28;20219;-58
2023/06/11 03:55:48;;;;;;;6.28;4.97;;;;;;;19.74;78.28;94522.56;4948281;28;20717;-58
2023/06/11 03:58:15;;;;;;;9.02;4.90;;;;;;;19.77;78.11;94521.53;4952448;28;20255;-57
2023/06/11 04:00:43;;;;;;;5.80;4.90;;;;;;;19.92;76.90;94520.31;4953035;28;20628;-58
2023/06/11 04:03:10;;;;;;;4.75;4.35;;;;;;;19.95;76.92;94523.47;4952008;28;20224;-58
2023/06/11 04:05:37;;;;;;;5.65;5.03;;;;;;;19.92;76.84;94520.31;4952633;28;20429;-57
2023/06/11 04:08:04;;;;;;;9.63;5.18;;;;;;;19.96;76.83;94524.28;4951663;28;20279;-58
2023/06/11 04:10:30;;;;;;;5.32;5.00;;;;;;;19.95;76.57;94520.88;4952083;28;20212;-57
2023/06/11 04:12:57;;;;;;;5.82;4.38;;;;;;;20.04;75.71;94514.19;4953546;28;20201;-57
2023/06/11 04:15:24;;;;;;;6.78;5.03;;;;;;;20.11;75.61;94525.66;4952034;28;20257;-59
2023/06/11 04:17:52;;;;;;;7.00;4.93;;;;;;;20.27;74.72;94514.94;4951703;28;20213;-59
2023/06/11 04:20:19;;;;;;;4.88;4.50;;;;;;;20.38;74.03;94526.06;4952193;28;20360;-58
2023/06/11 04:22:45;;;;;;;5.80;4.82;;;;;;;20.50;73.43;94526.03;4951655;28;20300;-58
2023/06/11 04:25:13;;;;;;;8.07;4.60;;;;;;;20.49;73.34;94529.53;4952857;28;20209;-58
2023/06/11 04:27:39;;;;;;;5.50;5.10;;;;;;;20.35;73.42;94513.38;4951059;28;20542;-57
2023/06/11 04:30:09;;;;;;;5.45;5.05;;;;;;;20.43;73.54;94527.44;4953485;28;20975;-57
2023/06/11 04:32:36;;;;;;;5.30;4.90;;;;;;;20.50;73.12;94518.28;4951884;28;20208;-56
2023/06/11 04:35:06;;;;;;;5.40;4.90;;;;;;;20.55;73.24;94518.69;4952361;28;20209;-57
2023/06/11 04:37:38;;;;;;;8.43;5.25;;;;;;;20.62;72.91;94510.34;4950484;28;20218;-58
2023/06/11 04:40:10;;;;;;;5.97;5.10;;;;;;;20.71;72.82;94521.69;4952011;28;20252;-57
2023/06/11 04:42:40;;;;;;;5.88;5.40;;;;;;;20.78;72.39;94516.84;4952357;28;20211;-57
2023/06/11 04:45:09;;;;;;;5.72;5.30;;;;;;;20.76;72.31;94511.00;4953036;28;20201;-57
2023/06/11 04:47:36;;;;;;;8.95;5.20;;;;;;;20.85;72.19;94521.38;4950355;28;20245;-58
2023/06/11 04:50:06;;;;;;;6.13;5.57;;;;;;;20.86;72.18;94515.25;4952021;28;20213;-58
2023/06/11 04:52:35;;;;;;;5.80;5.40;;;;;;;20.86;72.04;94517.84;4950140;28;20232;-57
2023/06/11 04:55:03;;;;;;;6.53;5.93;;;;;;;20.94;72.06;94512.88;4948815;28;20228;-59
2023/06/11 04:57:32;;;;;;;5.28;4.78;;;;;;;20.95;71.93;94509.34;4952730;28;20272;-59
2023/06/11 04:59:58;;;;;;;5.35;4.85;;;;;;;21.01;71.63;94515.75;4950285;28;20201;-59
2023/06/11 05:02:26;;;;;;;6.38;5.15;;;;;;;21.06;71.36;94513.59;4953198;28;20232;-58
2023/06/11 05:04:54;;;;;;;4.88;4.32;;;;;;;21.17;71.22;94512.72;4951876;28;20836;-60
2023/06/11 05:07:22;;;;;;;6.30;5.75;;;;;;;21.29;70.05;94514.28;4952406;28;21714;-58
2023/06/11 05:09:48;;;;;;;6.63;4.75;;;;;;;21.43;69.38;94516.53;4949345;28;20335;-58
2023/06/11 05:12:15;;;;;;;5.70;4.50;;;;;;;21.52;68.65;94515.75;4950146;28;20544;-57
2023/06/11 05:14:43;;;;;;;6.40;4.10;;;;;;;21.68;67.46;94516.09;4950004;28;20300;-58
2023/06/11 05:17:09;;;;;;;4.55;4.05;;;;;;;21.72;67.35;94517.47;4948944;28;20249;-58
2023/06/11 05:19:36;;;;;;;4.18;3.78;;;;;;;21.76;67.35;94523.19;4948848;28;21239;-58
2023/06/11 05:22:03;;;;;;;8.50;4.07;;;;;;;21.82;66.88;94516.66;4950441;28;20370;-59
2023/06/11 05:24:31;;;;;;;4.40;4.10;;;;;;;21.88;66.54;94521.31;4949853;28;20201;-59
2023/06/11 05:26:59;;;;;;;9.35;4.53;;;;;;;21.96;66.36;94519.69;4948108;28;20294;-59
2023/06/11 05:29:26;;;;;;;5.43;4.05;;;;;;;22.09;65.72;94523.81;4949114;28;20370;-58
2023/06/11 05:31:56;;;;;;;4.57;4.05;;;;;;;22.14;64.92;94517.28;4951714;28;20875;-57
2023/06/11 05:34:22;;;;;;;6.05;4.38;;;;;;;22.43;64.30;94519.91;4952445;28;20209;-58
2023/06/11 05:36:49;;;;;;;6.60;3.45;;;;;;;22.66;63.15;94528.22;4950075;28;20209;-58
2023/06/11 05:39:16;;;;;;;4.70;4.30;;;;;;;22.91;62.46;94522.50;4953676;28;20263;-56
2023/06/11 05:41:44;;;;;;;3.92;3.63;;;;;;;23.13;61.94;94536.09;4953223;28;20661;-58
2023/06/11 05:44:11;;;;;;;5.22;4.40;;;;;;;23.40;60.73;94533.56;4950343;28;20245;-57
2023/06/11 05:46:38;;;;;;;4.03;3.60;;;;;;;23.59;60.34;94533.50;4950211;28;20741;-58
2023/06/11 05:49:05;;;;;;;3.90;3.45;;;;;;;23.77;59.26;94535.34;4949139;28;20264;-57
2023/06/11 05:51:32;;;;;;;4.90;3.75;;;;;;;23.79;59.51;94530.81;4948305;28;20625;-58
2023/06/11 05:54:01;;;;;;;3.97;3.53;;;;;;;23.95;58.55;94539.63;4949373;28;21496;-58
2023/06/11 05:56:28;;;;;;;4.20;3.90;;;;;;;24.21;57.75;94542.34;4950411;28;20213;-58
2023/06/11 05:58:56;;;;;;;4.43;3.78;;;;;;;24.57;56.92;94532.00;4949419;28;20773;-58
2023/06/11 06:01:22;;;;;;;4.18;3.97;;;;;;;24.89;55.54;94534.88;4949627;28;20259;-58
2023/06/11 06:03:49;;;;;;;4.25;4.03;;;;;;;25.35;54.75;94536.34;4951994;28;20232;-59
2023/06/11 06:06:16;;;;;;;4.07;3.42;;;;;;;26.18;52.04;94523.56;4950318;28;20747;-58
2023/06/11 06:08:42;;;;;;;4.20;3.80;;;;;;;27.08;49.95;94538.34;4954163;28;20310;-59
2023/06/11 06:11:09;;;;;;;4.53;3.65;;;;;;;27.97;47.80;94529.47;4954027;28;20209;-58
2023/06/11 06:13:36;;;;;;;5.30;3.97;;;;;;;29.15;45.32;94529.25;4948535;28;20743;-59
2023/06/11 06:16:05;;;;;;;5.00;3.38;;;;;;;31.10;41.06;94525.81;4949528;28;20669;-58
2023/06/11 06:18:33;;;;;;;7.25;3.45;;;;;;;34.03;36.01;94520.16;4949050;28;20325;-59
2023/06/11 06:20:59;;;;;;;3.55;3.13;;;;;;;38.37;28.91;94509.97;4948602;28;20741;-59
2023/06/11 06:23:26;;;;;;;6.10;3.60;;;;;;;42.01;24.02;94511.38;4950505;28;20232;-59
2023/06/11 06:25:53;;;;;;;3.70;3.40;;;;;;;43.13;21.98;94514.38;4949577;28;20232;-58
2023/06/11 06:28:19;;;;;;;5.65;3.55;;;;;;;41.78;23.13;94512.56;4948494;28;20212;-59
2023/06/11 06:30:46;;;;;;;5.22;3.83;;;;;;;40.12;24.83;94511.50;4950443;28;20208;-61
2023/06/11 06:33:14;;;;;;;7.53;3.60;;;;;;;38.38;27.17;94511.56;4948715;28;20288;-59
2023/06/11 06:35:41;;;;;;;4.75;4.35;;;;;;;36.85;28.25;94511.03;4949099;28;20209;-60
2023/06/11 06:38:08;;;;;;;7.53;4.07;;;;;;;35.35;30.58;94506.22;4948343;28;20209;-59
2023/06/11 06:40:34;;;;;;;4.25;3.90;;;;;;;34.51;32.11;94508.41;4949057;28;20291;-58
2023/06/11 06:43:02;;;;;;;5.95;3.80;;;;;;;34.25;33.14;94511.97;4947475;28;20209;-59
2023/06/11 06:45:28;;;;;;;4.45;4.03;;;;;;;33.95;34.39;94512.47;4948785;28;20355;-58
2023/06/11 06:47:55;;;;;;;5.63;4.75;;;;;;;33.69;34.16;94515.97;4948815;28;20197;-60
2023/06/11 06:50:23;;;;;;;5.55;3.88;;;;;;;33.77;34.07;94507.03;4949133;28;20322;-58
2023/06/11 06:52:50;;;;;;;4.50;4.10;;;;;;;33.79;33.49;94515.59;4946924;28;20216;-58
2023/06/11 06:55:17;;;;;;;4.72;4.30;;;;;;;33.68;34.30;94510.91;4947403;28;20224;-59
2023/06/11 06:57:43;;;;;;;11.98;4.20;;;;;;;33.29;34.31;94514.41;4948986;28;20217;-58
2023/06/11 07:00:11;;;;;;;6.32;4.45;;;;;;;33.08;34.97;94510.16;4948177;28;20197;-59
2023/06/11 07:02:38;;;;;;;4.50;4.20;;;;;;;32.83;36.22;94509.13;4948199;28;20212;-60
2023/06/11 07:05:05;;;;;;;4.78;4.15;;;;;;;32.77;36.22;94510.75;4948372;28;20292;-58
2023/06/11 07:07:33;;;;;;;4.68;4.28;;;;;;;32.85;35.58;94507.91;4947798;28;20332;-59
2023/06/11 07:10:00;;;;;;;5.25;4.28;;;;;;;32.69;36.50;94505.63;4949199;28;20327;-59
2023/06/11 07:12:27;;;;;;;4.97;4.47;;;;;;;32.53;36.31;94504.19;4948647;28;20767;-63
2023/06/11 07:14:53;;;;;;;7.50;6.80;;;;;;;32.13;37.17;94503.25;4946199;28;21111;-58
2023/06/11 07:17:21;;;;;;;5.63;5.20;;;;;;;31.43;37.51;94506.88;4945768;28;21610;-58
2023/06/11 07:19:48;;;;;;;5.15;4.72;;;;;;;30.69;39.96;94503.84;4946970;28;20232;-58
2023/06/11 07:22:15;;;;;;;5.10;4.72;;;;;;;30.57;39.96;94500.13;4946662;28;20695;-58
2023/06/11 07:24:47;;;;;;;4.85;4.45;;;;;;;31.31;39.66;94503.19;4947623;28;20209;-58
2023/06/11 07:27:13;;;;;;;5.65;5.25;;;;;;;35.28;32.76;94488.78;4946598;28;20205;-59
2023/06/11 07:29:40;;;;;;;5.43;5.03;;;;;;;37.68;27.88;94489.69;4947086;28;20317;-59
2023/06/11 07:32:08;;;;;;;5.07;4.78;;;;;;;36.09;28.70;94497.34;4950388;28;20295;-59
2023/06/11 07:34:34;;;;;;;5.75;4.60;;;;;;;35.53;30.40;94483.50;4951348;28;20324;-59
2023/06/11 07:37:01;;;;;;;5.30;4.78;;;;;;;36.39;29.23;94494.72;4952057;28;20679;-59
2023/06/11 07:39:28;;;;;;;6.10;4.32;;;;;;;36.65;28.98;94495.38;4951385;28;20316;-58
2023/06/11 07:41:56;;;;;;;5.47;4.97;;;;;;;39.01;26.36;94489.41;4952581;28;20996;-58
2023/06/11 07:44:22;;;;;;;6.13;5.68;;;;;;;41.52;23.11;94479.56;4951631;28;20205;-59
2023/06/11 07:46:49;;;;;;;7.05;6.40;;;;;;;44.39;20.83;94482.03;4951920;28;20753;-59
2023/06/11 07:49:16;;;;;;;9.27;8.60;;;;;;;47.12;18.06;94474.16;4952045;28;20225;-58
2023/06/11 07:51:44;;;;;;;7.75;7.18;;;;;;;49.55;16.65;94475.59;4952989;28;20242;-62
2023/06/11 07:54:12;;;;;;;5.95;5.47;;;;;;;49.21;16.41;94476.22;4952466;28;20201;-59
2023/06/11 07:56:38;;;;;;;8.57;5.35;;;;;;;47.82;17.20;94473.25;4951848;28;20197;-59
2023/06/11 07:59:06;;;;;;;6.88;4.90;;;;;;;47.52;17.30;94466.53;4951964;28;20205;-61
2023/06/11 08:01:33;;;;;;;5.40;5.00;;;;;;;45.21;18.17;94476.97;4952072;28;20212;-59
2023/06/11 08:04:00;;;;;;;5.43;4.63;;;;;;;42.64;20.07;94464.84;4952208;28;20295;-59
2023/06/11 08:06:26;;;;;;;4.93;4.63;;;;;;;39.58;23.28;94477.78;4952063;28;20208;-59
2023/06/11 08:08:53;;;;;;;5.40;5.10;;;;;;;38.15;24.77;94468.38;4952694;28;20262;-60
2023/06/11 08:11:20;;;;;;;8.88;5.32;;;;;;;39.52;23.99;94474.25;4951990;28;20300;-59
2023/06/11 08:13:46;;;;;;;6.75;5.22;;;;;;;41.20;22.31;94468.94;4952228;28;20213;-60
2023/06/11 08:16:15;;;;;;;6.85;6.13;;;;;;;41.61;22.22;94475.38;4951642;28;20262;-61
2023/06/11 08:18:42;;;;;;;8.88;5.25;;;;;;;42.84;20.52;94463.28;4951808;28;20233;-59
2023/06/11 08:21:08;;;;;;;7.35;6.90;;;;;;;42.79;20.90;94466.75;4951981;28;20301;-59
2023/06/11 08:23:36;;;;;;;6.93;6.43;;;;;;;42.40;21.32;94453.03;4953160;28;20220;-59
2023/06/11 08:26:03;;;;;;;7.28;5.50;;;;;;;42.63;20.73;94462.44;4951386;28;20212;-59
2023/06/11 08:28:30;;;;;;;5.18;4.70;;;;;;;44.46;19.95;94460.31;4950206;28;20217;-60
2023/06/11 08:30:57;;;;;;;5.40;5.00;;;;;;;46.06;18.49;94461.09;4950943;28;20228;-60
2023/06/11 08:33:25;;;;;;;8.98;7.18;;;;;;;47.49;17.79;94459.84;4953106;28;20296;-60
2023/06/11 08:35:51;;;;;;;5.35;4.82;;;;;;;46.74;16.63;94459.97;4952098;28;21986;-59
2023/06/11 08:38:18;;;;;;;7.45;4.32;;;;;;;45.69;17.58;94461.78;4950842;28;20304;-59
2023/06/11 08:40:47;;;;;;;5.32;4.93;;;;;;;45.85;17.82;94457.00;4951495;28;21673;-59
2023/06/11 08:43:13;;;;;;;8.55;7.68;;;;;;;45.66;17.67;94458.84;4952320;28;20292;-59
2023/06/11 08:45:40;;;;;;;5.57;4.97;;;;;;;43.35;19.43;94453.41;4952161;28;20292;-59
2023/06/11 08:48:09;;;;;;;5.22;4.88;;;;;;;41.33;21.27;94454.38;4951692;28;20205;-59
2023/06/11 08:50:38;;;;;;;6.28;4.70;;;;;;;40.92;21.55;94455.91;4950645;28;20606;-60
2023/06/11 08:53:06;;;;;;;6.07;4.60;;;;;;;39.27;23.66;94460.56;4950394;28;20699;-59
2023/06/11 08:55:33;;;;;;;7.68;7.00;;;;;;;37.12;25.61;94465.31;4949452;28;20679;-62
2023/06/11 08:58:01;;;;;;;4.47;4.18;;;;;;;35.37;26.45;94461.91;4947971;28;22292;-60
2023/06/11 09:00:27;;;;;;;6.75;6.13;;;;;;;36.08;26.60;94463.97;4950027;28;20213;-59
2023/06/11 09:02:55;;;;;;;6.07;5.63;;;;;;;37.03;26.87;94463.25;4949872;28;20327;-58
2023/06/11 09:05:22;;;;;;;10.45;7.85;;;;;;;37.99;25.91;94459.31;4950005;28;20307;-59
2023/06/11 09:07:51;;;;;;;6.00;4.95;;;;;;;37.56;24.65;94441.97;4947057;28;20524;-59
2023/06/11 09:10:19;;;;;;;6.32;4.90;;;;;;;38.29;24.92;94448.50;4950303;28;20315;-60
2023/06/11 09:12:46;;;;;;;5.75;4.78;;;;;;;39.88;22.72;94440.09;4949794;28;21290;-60
2023/06/11 09:15:14;;;;;;;5.22;4.50;;;;;;;39.58;21.54;94435.22;4950649;28;20201;-60
2023/06/11 09:17:42;;;;;;;5.25;4.75;;;;;;;38.91;22.49;94436.06;4945251;28;20555;-59
2023/06/11 09:20:10;;;;;;;5.22;4.65;;;;;;;37.90;24.02;94435.00;4949420;28;20676;-58
2023/06/11 09:22:38;;;;;;;6.32;4.97;;;;;;;36.66;25.04;94433.47;4949895;28;20209;-60
2023/06/11 09:25:09;;;;;;;5.10;4.70;;;;;;;35.81;23.95;94435.44;4949995;28;20209;-59
2023/06/11 09:27:36;;;;;;;4.38;4.07;;;;;;;34.08;27.63;94432.53;4949647;28;20205;-60
2023/06/11 09:30:10;;;;;;;4.97;4.15;;;;;;;34.51;28.15;94429.25;4949821;28;21559;-56
2023/06/11 09:32:41;;;;;;;5.18;4.78;;;;;;;34.79;27.60;94427.03;4950319;28;21575;-59
2023/06/11 09:35:09;;;;;;;4.95;4.55;;;;;;;33.20;29.54;94426.06;4950470;28;20264;-59
2023/06/11 09:37:44;;;;;;;4.93;4.28;;;;;;;32.97;29.80;94427.31;4948435;28;20209;-62
2023/06/11 09:40:16;;;;;;;7.00;4.60;;;;;;;32.03;30.83;94423.94;4950140;28;20240;-58
2023/06/11 09:42:44;;;;;;;4.90;4.50;;;;;;;31.00;32.10;94432.66;4949818;28;20320;-57
2023/06/11 09:45:16;;;;;;;5.03;4.57;;;;;;;29.49;34.75;94437.16;4950426;28;20901;-58
2023/06/11 09:47:43;;;;;;;7.15;5.57;;;;;;;28.22;37.30;94437.94;4948925;28;20209;-58
2023/06/11 09:50:11;;;;;;;5.53;5.03;;;;;;;27.63;39.98;94437.63;4951697;28;20288;-58
2023/06/11 09:52:39;;;;;;;8.55;5.63;;;;;;;27.57;39.15;94435.66;4951131;28;20323;-59
2023/06/11 09:55:08;;;;;;;7.40;5.82;;;;;;;27.38;38.33;94435.06;4943757;28;20602;-57
2023/06/11 09:57:37;;;;;;;5.97;5.20;;;;;;;27.12;39.58;94425.88;4942575;28;20349;-58
2023/06/11 10:00:07;;;;;;;6.00;4.88;;;;;;;27.19;40.44;94445.09;4944165;28;20201;-59
2023/06/11 10:02:35;;;;;;;5.65;4.90;;;;;;;27.24;39.53;94430.53;4945130;28;20237;-59
2023/06/11 10:05:02;;;;;;;7.72;6.32;;;;;;;27.57;40.35;94433.03;4944738;28;20282;-58
2023/06/11 10:07:31;;;;;;;5.45;5.05;;;;;;;27.64;39.10;94434.84;4947058;28;20232;-59
2023/06/11 10:09:58;;;;;;;5.70;5.20;;;;;;;27.65;37.85;94420.81;4945817;28;20240;-59
2023/06/11 10:12:25;;;;;;;7.72;4.70;;;;;;;27.61;37.78;94421.31;4946679;28;20217;-59
2023/06/11 10:14:54;;;;;;;6.47;4.38;;;;;;;27.61;38.36;94419.50;4947151;28;20741;-58
2023/06/11 10:17:22;;;;;;;5.88;5.47;;;;;;;27.78;37.09;94428.88;4948024;28;20287;-63
2023/06/11 10:19:51;;;;;;;4.85;4.45;;;;;;;27.36;39.14;94416.16;4948023;28;20212;-58
2023/06/11 10:22:21;;;;;;;6.13;4.60;;;;;;;27.34;40.06;94412.09;4948665;28;20209;-59
2023/06/11 10:25:00;;;;;;;7.45;6.68;;;;;;;27.62;37.15;94405.47;4947641;28;20205;-58
2023/06/11 10:27:36;;;;;;;5.88;4.85;;;;;;;27.71;37.48;94404.47;4948540;28;20216;-59
2023/06/11 10:30:06;;;;;;;4.80;4.40;;;;;;;27.65;38.13;94399.91;4947923;28;20224;-58
2023/06/11 10:32:33;;;;;;;5.78;4.20;;;;;;;27.62;35.09;94405.47;4948228;28;20232;-58
2023/06/11 10:35:03;;;;;;;6.80;4.30;;;;;;;27.65;36.73;94405.16;4945185;28;20297;-59
2023/06/11 10:37:35;;;;;;;9.27;5.03;;;;;;;27.62;36.51;94394.22;4949251;28;20296;-59
2023/06/11 10:40:02;;;;;;;5.47;4.43;;;;;;;27.88;37.89;94399.94;4947688;28;20283;-62
2023/06/11 10:42:36;;;;;;;9.05;4.85;;;;;;;27.71;37.62;94394.03;4949140;28;21272;-59
2023/06/11 10:45:09;;;;;;;7.35;6.45;;;;;;;27.77;38.57;94393.31;4947127;28;20634;-58
2023/06/11 10:47:43;;;;;;;10.98;8.13;;;;;;;27.62;37.72;94400.25;4946697;28;20204;-58
2023/06/11 10:50:12;;;;;;;6.55;5.97;;;;;;;27.53;37.99;94398.63;4947486;28;20228;-58
2023/06/11 10:52:48;;;;;;;6.30;5.82;;;;;;;27.50;38.66;94400.75;4948973;28;20209;-57
2023/06/11 10:55:15;;;;;;;7.32;5.13;;;;;;;27.18;38.66;94386.91;4946495;28;20294;-57
2023/06/11 10:57:42;;;;;;;7.85;5.13;;;;;;;27.14;39.16;94390.00;4948343;28;20774;-58
2023/06/11 11:00:12;;;;;;;7.70;4.60;;;;;;;27.29;39.55;94393.53;4946084;28;20336;-58
2023/06/11 11:02:39;;;;;;;8.07;5.05;;;;;;;27.49;38.70;94392.13;4949302;28;21040;-58
2023/06/11 11:05:09;;;;;;;5.70;5.07;;;;;;;27.65;38.85;94379.03;4950528;28;20304;-59
2023/06/11 11:07:37;;;;;;;4.80;4.38;;;;;;;27.65;38.06;94373.81;4953011;28;20292;-58
2023/06/11 11:10:05;;;;;;;8.57;5.78;;;;;;;27.49;38.51;94376.47;4952918;28;20283;-57
2023/06/11 11:12:36;;;;;;;7.45;6.80;;;;;;;27.25;40.63;94384.41;4953590;28;23289;-59
2023/06/11 11:15:03;;;;;;;8.18;7.47;;;;;;;27.42;40.45;94378.16;4949177;28;20295;-59
2023/06/11 11:17:31;;;;;;;6.75;6.05;;;;;;;27.19;39.11;94378.09;4951139;28;20336;-59
2023/06/11 11:19:58;;;;;;;5.72;5.07;;;;;;;27.21;40.21;94377.91;4950536;28;20213;-59
2023/06/11 11:22:26;;;;;;;5.22;4.82;;;;;;;27.29;38.75;94372.66;4950983;28;20299;-59
2023/06/11 11:24:53;;;;;;;7.45;5.40;;;;;;;27.15;39.20;94370.75;4951695;28;20216;-59
2023/06/11 11:27:23;;;;;;;6.20;5.80;;;;;;;26.87;40.21;94383.38;4951743;28;20313;-59
2023/06/11 11:29:50;;;;;;;6.32;4.28;;;;;;;26.62;40.75;94380.00;4951720;28;20303;-60
2023/06/11 11:32:17;;;;;;;8.98;5.40;;;;;;;26.45;40.49;94379.22;4952343;28;20236;-58
2023/06/11 11:34:48;;;;;;;4.30;3.88;;;;;;;26.09;44.42;94389.09;4951145;28;20295;-58